Portada
METAR-TAF:

METAR-TAF

Aeroports :

Libreville, Gabon

latitud: 00-27N, longitud: 009-25E, altitud: 12 m

Observació

L'informe es va fer fa 19 hores i 9 minuts, a les 07:00 UTC
Vent 4 kt del Sud-Est
Temperatura 27°C
Humitat 84%
Pressió 1011 hPa
Visibilitat: 9000 m
Escasses núvols a una alçada de 1000 ft

METAR: FOOL 270700Z 14004KT 9000 FEW010 27/24 Q1011 NOSIG

Hora: 03:09 (02:09 UTC)

Pronòstic

L'informe es va fer fa 3 hores i 9 minuts, a les 23:00 UTC
Pronòstic vàlid del 28 a les 00 UTC al 29 a les 06 UTC
Vent 10 kt del Sud/Sud-Oest
Visibilitat 10 km o més
Núvols disperses a una alçada de 1100 ft
Cel ennuvolat a una alçada de 3000 ft

TAF: FOOL 272300Z 2800/2906 20010KT 9999 SCT011 BKN030

Observacions i pronòstics meteorològics de més de 4000 aeroports (METAR i TAF).

Les estacions disponibles són els punts grocs i vermells al mapa.

Posi el ratolí al punt desitjat per veure el nom de l'estació.

Feu clic per veure les observacions i els pronòstics meteorològics.

Per canviar el mapa: feu clic els botons verds amb una creu de color negre per apropar; al botó verd amb un guió per allunyar la imatge; o en les fletxes verdes per a mapes adjacents.


METAR-TAF: